createdAt,value
2022-12-09T00:01:15.290Z,101097.44
2022-12-09T00:06:15.119Z,101098.38
2022-12-09T00:11:12.300Z,101114.91
2022-12-09T00:16:11.977Z,101127.22
2022-12-09T00:21:13.415Z,101124.72
2022-12-09T00:26:10.544Z,101108.91
2022-12-09T00:31:09.228Z,101098.56
2022-12-09T00:36:07.847Z,101107.06
2022-12-09T00:41:06.056Z,101121.84
2022-12-09T00:46:03.616Z,101120.19
2022-12-09T00:51:00.893Z,101124.38
2022-12-09T00:55:58.195Z,101127.06
2022-12-09T01:00:55.271Z,101138.56
2022-12-09T01:05:54.510Z,101142.84
2022-12-09T01:10:51.379Z,101148.31
2022-12-09T01:15:49.254Z,101137.88
2022-12-09T01:20:46.152Z,101134.28
2022-12-09T01:25:43.121Z,101135.34
2022-12-09T01:30:43.045Z,101137.66
2022-12-09T01:35:41.090Z,101152.44
2022-12-09T01:40:37.627Z,101147.09
2022-12-09T01:45:38.599Z,101147.09
2022-12-09T01:50:36.151Z,101158.50
2022-12-09T01:55:35.057Z,101132.22
2022-12-09T02:00:32.473Z,101132.28
2022-12-09T02:05:30.978Z,101118.13
2022-12-09T02:10:30.493Z,101106.09
2022-12-09T02:15:41.771Z,101116.56
2022-12-09T02:20:41.711Z,101119.84
2022-12-09T02:25:43.847Z,101125.19
2022-12-09T02:30:49.730Z,101112.56
2022-12-09T02:35:52.498Z,101119.34
2022-12-09T02:40:54.314Z,101116.56
2022-12-09T02:45:57.502Z,101120.91
2022-12-09T02:50:58.223Z,101117.16
2022-12-09T02:55:56.379Z,101122.00
2022-12-09T03:00:55.040Z,101126.06
2022-12-09T03:05:55.734Z,101143.38
2022-12-09T03:10:56.660Z,101126.72
2022-12-09T03:15:58.283Z,101125.25
2022-12-09T03:20:57.334Z,101132.75
2022-12-09T03:25:56.020Z,101119.03
2022-12-09T03:30:53.945Z,101144.00
2022-12-09T03:35:53.585Z,101135.06
2022-12-09T03:40:52.583Z,101129.69
2022-12-09T03:45:51.435Z,101135.63
2022-12-09T03:50:52.127Z,101137.53
2022-12-09T03:55:54.341Z,101151.00
2022-12-09T04:00:55.219Z,101141.94
2022-12-09T04:05:51.983Z,101161.94
2022-12-09T04:10:50.288Z,101159.66
2022-12-09T04:15:49.372Z,101151.91
2022-12-09T04:20:46.961Z,101156.25
2022-12-09T04:25:44.109Z,101164.97
2022-12-09T04:30:47.207Z,101131.03
2022-12-09T04:35:46.244Z,101146.50
2022-12-09T04:40:43.628Z,101145.75
2022-12-09T04:45:40.660Z,101158.19
2022-12-09T04:50:39.833Z,101153.09
2022-12-09T04:55:37.117Z,101146.03
2022-12-09T05:00:47.746Z,101153.91
2022-12-09T05:05:45.850Z,101160.81
2022-12-09T05:11:08.128Z,101167.81
2022-12-09T05:16:12.181Z,101166.16
2022-12-09T05:21:14.368Z,101159.13
2022-12-09T05:26:12.468Z,101176.56
2022-12-09T05:31:11.445Z,101177.38
2022-12-09T05:36:11.814Z,101179.88
2022-12-09T05:41:09.436Z,101174.16
2022-12-09T05:46:07.793Z,101190.53
2022-12-09T05:51:08.685Z,101184.56
2022-12-09T05:56:06.188Z,101199.13
2022-12-09T06:01:07.283Z,101196.56
2022-12-09T06:06:09.215Z,101220.44
2022-12-09T06:11:10.406Z,101223.72
2022-12-09T06:16:10.790Z,101217.56
2022-12-09T06:21:09.491Z,101216.72
2022-12-09T06:26:14.887Z,101204.56
2022-12-09T06:31:14.193Z,101188.09
2022-12-09T06:36:12.039Z,101184.56
2022-12-09T06:41:11.858Z,101203.78
2022-12-09T06:46:13.705Z,101214.88
2022-12-09T06:56:42.638Z,101227.16
2022-12-09T07:01:44.875Z,101234.97
2022-12-09T07:06:47.963Z,101226.06
2022-12-09T07:11:50.869Z,101224.44
2022-12-09T07:16:54.584Z,101223.47
2022-12-09T07:21:54.457Z,101217.84
2022-12-09T07:26:54.512Z,101205.63
2022-12-09T07:32:06.279Z,101191.16
2022-12-09T07:37:03.979Z,101225.66
2022-12-09T07:42:03.070Z,101221.44
2022-12-09T07:47:06.198Z,101225.59
2022-12-09T07:52:05.806Z,101204.66
2022-12-09T07:57:25.681Z,101226.22
2022-12-09T08:02:25.165Z,101213.91
2022-12-09T08:07:24.865Z,101210.59
2022-12-09T08:12:22.004Z,101204.34
2022-12-09T08:17:20.630Z,101196.13
2022-12-09T08:22:18.480Z,101202.47
2022-12-09T08:27:16.377Z,101203.63
2022-12-09T08:32:23.511Z,101205.56
2022-12-09T08:37:29.213Z,101212.19
2022-12-09T08:42:29.844Z,101210.59
2022-12-09T08:47:29.533Z,101194.00
2022-12-09T08:52:32.262Z,101200.69
2022-12-09T08:57:33.848Z,101193.53
2022-12-09T09:02:33.624Z,101186.66
2022-12-09T09:07:33.050Z,101161.22
2022-12-09T09:12:37.347Z,101168.69
2022-12-09T09:17:37.672Z,101168.38
2022-12-09T09:22:44.377Z,101159.47
2022-12-09T09:27:43.471Z,101127.22
2022-12-09T09:32:40.603Z,101140.19
2022-12-09T09:37:38.976Z,101135.31
2022-12-09T09:42:40.965Z,101130.38
2022-12-09T09:47:43.506Z,101116.13
2022-12-09T09:52:56.176Z,101110.78
2022-12-09T09:58:02.205Z,101111.31
2022-12-09T10:03:01.121Z,101089.41
2022-12-09T10:08:16.509Z,101081.47
2022-12-09T10:13:26.406Z,101084.75
2022-12-09T10:18:29.121Z,101080.38
2022-12-09T10:23:36.030Z,101064.81
2022-12-09T10:28:48.422Z,101062.16
2022-12-09T10:33:46.311Z,101042.94
2022-12-09T10:38:51.646Z,101041.41
2022-12-09T10:43:49.282Z,101045.81
2022-12-09T10:49:08.243Z,101038.84
2022-12-09T10:54:21.663Z,101046.41
2022-12-09T10:59:25.788Z,101036.34
2022-12-09T11:04:37.502Z,101031.13
2022-12-09T11:10:10.936Z,101015.16
2022-12-09T11:15:25.572Z,101010.22
2022-12-09T11:20:26.692Z,100997.25
2022-12-09T11:25:29.631Z,100991.84
2022-12-09T11:30:32.667Z,100986.75
2022-12-09T11:35:32.138Z,101000.91
2022-12-09T11:40:33.193Z,100999.44
2022-12-09T11:45:42.103Z,100994.56
2022-12-09T11:50:46.473Z,100993.09
2022-12-09T11:55:48.400Z,100990.72
2022-12-09T12:06:56.573Z,100982.69
2022-12-09T12:11:58.559Z,100976.44
2022-12-09T12:17:02.014Z,100961.63
2022-12-09T12:22:15.936Z,100958.47
2022-12-09T12:27:31.032Z,100959.56
2022-12-09T12:33:17.855Z,100988.00
2022-12-09T12:38:05.182Z,100975.44
2022-12-09T12:43:33.479Z,100967.75
2022-12-09T12:48:44.409Z,100963.09
2022-12-09T12:53:47.616Z,100952.78
2022-12-09T12:59:01.044Z,100955.81
2022-12-09T13:04:10.090Z,100964.50
2022-12-09T13:09:11.967Z,100941.69
2022-12-09T13:14:17.828Z,100938.75
2022-12-09T13:19:20.828Z,100934.72
2022-12-09T13:36:46.517Z,100925.44
2022-12-09T13:42:02.875Z,100932.38
2022-12-09T13:47:23.099Z,100926.28
2022-12-09T13:52:39.494Z,100938.31
2022-12-09T13:58:08.737Z,100945.06
2022-12-09T14:09:53.150Z,100930.75
2022-12-09T14:14:51.132Z,100912.09
2022-12-09T14:19:54.285Z,100926.22
2022-12-09T14:24:59.965Z,100923.28
2022-12-09T14:30:06.159Z,100910.38
2022-12-09T14:35:16.392Z,100877.81
2022-12-09T14:40:39.757Z,100886.84
2022-12-09T14:45:45.948Z,100890.03
2022-12-09T14:50:43.319Z,100873.88
2022-12-09T14:55:43.103Z,100878.00
2022-12-09T15:00:43.910Z,100874.59
2022-12-09T15:05:56.991Z,100875.41
2022-12-09T15:10:53.906Z,100871.09
2022-12-09T15:15:51.717Z,100872.72
2022-12-09T15:20:52.539Z,100866.66
2022-12-09T15:25:51.034Z,100863.81
2022-12-09T15:30:56.603Z,100847.41
2022-12-09T15:35:56.655Z,100848.34
2022-12-09T15:41:11.498Z,100834.31
2022-12-09T15:46:08.569Z,100840.59
2022-12-09T15:51:12.318Z,100833.47
2022-12-09T15:56:11.918Z,100846.34
2022-12-09T16:01:09.224Z,100831.28
2022-12-09T16:06:08.619Z,100830.34
2022-12-09T16:11:05.760Z,100829.22
2022-12-09T16:16:22.850Z,100820.47
2022-12-09T16:21:25.856Z,100804.53
2022-12-09T16:26:24.912Z,100794.28
2022-12-09T16:31:22.110Z,100808.09
2022-12-09T16:36:25.885Z,100796.31
2022-12-09T16:41:43.224Z,100780.31
2022-12-09T16:46:40.985Z,100794.44
2022-12-09T16:51:39.282Z,100785.84
2022-12-09T16:56:36.401Z,100771.16
2022-12-09T17:01:36.317Z,100757.91
2022-12-09T17:06:33.581Z,100741.09
2022-12-09T17:11:31.313Z,100750.38
2022-12-09T17:16:34.939Z,100759.22
2022-12-09T17:21:35.400Z,100743.34
2022-12-09T17:26:32.875Z,100744.28
2022-12-09T17:31:29.981Z,100720.66
2022-12-09T17:36:26.748Z,100722.34
2022-12-09T17:41:23.787Z,100727.47
2022-12-09T17:46:21.406Z,100713.66
2022-12-09T17:51:18.567Z,100726.69
2022-12-09T17:56:16.441Z,100719.97
2022-12-09T18:01:17.740Z,100735.34
2022-12-09T18:06:18.155Z,100724.69
2022-12-09T18:11:14.952Z,100724.41
2022-12-09T18:16:15.328Z,100712.94
2022-12-09T18:21:15.880Z,100702.47
2022-12-09T18:26:15.888Z,100709.53
2022-12-09T18:31:14.215Z,100714.91
2022-12-09T18:36:12.918Z,100696.59
2022-12-09T18:41:10.806Z,100695.88
2022-12-09T18:46:10.356Z,100680.06
2022-12-09T18:51:13.508Z,100679.19
2022-12-09T18:56:10.681Z,100683.53
2022-12-09T19:01:15.526Z,100674.97
2022-12-09T19:06:20.000Z,100679.09
2022-12-09T19:11:17.069Z,100691.25
2022-12-09T19:16:14.561Z,100688.38
2022-12-09T19:21:12.962Z,100687.56
2022-12-09T19:26:13.144Z,100696.13
2022-12-09T19:31:14.122Z,100704.75
2022-12-09T19:36:12.111Z,100682.78
2022-12-09T19:41:09.171Z,100679.28
2022-12-09T19:46:06.999Z,100665.22
2022-12-09T19:51:04.448Z,100660.88
2022-12-09T19:56:02.758Z,100663.50
2022-12-09T20:00:59.511Z,100651.31
2022-12-09T20:05:56.177Z,100645.34
2022-12-09T20:10:52.726Z,100647.69
2022-12-09T20:15:50.374Z,100650.97
2022-12-09T20:20:49.011Z,100641.03
2022-12-09T20:25:46.049Z,100628.06
2022-12-09T20:30:42.906Z,100622.06
2022-12-09T20:35:40.195Z,100615.03
2022-12-09T20:40:40.677Z,100625.94
2022-12-09T20:45:38.237Z,100634.88
2022-12-09T20:50:38.614Z,100638.22
2022-12-09T20:55:36.292Z,100631.53
2022-12-09T21:00:33.006Z,100628.19
2022-12-09T21:05:29.657Z,100606.69
2022-12-09T21:10:26.402Z,100604.47
2022-12-09T21:15:26.779Z,100610.41
2022-12-09T21:20:23.668Z,100586.47
2022-12-09T21:25:20.465Z,100585.03
2022-12-09T21:30:17.513Z,100583.09
2022-12-09T21:35:17.021Z,100580.47
2022-12-09T21:40:13.768Z,100581.75
2022-12-09T21:45:10.587Z,100581.75
2022-12-09T21:50:08.094Z,100574.94
2022-12-09T21:55:06.023Z,100581.59
2022-12-09T22:00:02.723Z,100559.53
2022-12-09T22:05:02.194Z,100563.78
2022-12-09T22:09:58.872Z,100554.03
2022-12-09T22:14:56.207Z,100558.41
2022-12-09T22:20:13.845Z,100545.53
2022-12-09T22:25:10.840Z,100531.97
2022-12-09T22:30:09.457Z,100528.94
2022-12-09T22:35:06.879Z,100525.75
2022-12-09T22:40:03.810Z,100521.22
2022-12-09T22:45:00.595Z,100496.72
2022-12-09T22:49:57.966Z,100499.31
2022-12-09T22:54:54.537Z,100476.09
2022-12-09T22:59:51.297Z,100483.78
2022-12-09T23:04:48.356Z,100487.88
2022-12-09T23:09:46.217Z,100487.19
2022-12-09T23:14:42.908Z,100480.03
2022-12-09T23:19:39.685Z,100476.41
2022-12-09T23:24:38.905Z,100483.09
2022-12-09T23:29:39.111Z,100487.94
2022-12-09T23:34:35.977Z,100482.28
2022-12-09T23:39:32.792Z,100468.09
2022-12-09T23:44:29.545Z,100470.75
2022-12-09T23:49:27.152Z,100465.53
2022-12-09T23:54:23.910Z,100461.50
2022-12-09T23:59:21.580Z,100458.88
